createdAt,value
2023-02-16T00:00:51.014Z,-4.34
2023-02-16T00:03:22.619Z,-4.57
2023-02-16T00:05:52.772Z,-4.41
2023-02-16T00:08:25.778Z,-4.39
2023-02-16T00:11:14.229Z,-4.35
2023-02-16T00:13:52.390Z,-4.36
2023-02-16T00:16:23.848Z,-4.39
2023-02-16T00:18:54.112Z,-4.45
2023-02-16T00:21:23.859Z,-4.37
2023-02-16T00:26:36.938Z,-4.28
2023-02-16T00:29:07.664Z,-4.24
2023-02-16T00:31:37.526Z,-4.25
2023-02-16T00:34:27.926Z,-4.31
2023-02-16T00:36:58.200Z,-4.33
2023-02-16T00:39:28.296Z,-4.34
2023-02-16T00:42:00.597Z,-4.64
2023-02-16T00:44:37.969Z,-4.59
2023-02-16T00:47:20.753Z,-4.42
2023-02-16T00:49:51.132Z,-4.39
2023-02-16T00:55:17.149Z,-4.48
2023-02-16T00:57:54.726Z,-4.51
2023-02-16T01:00:30.340Z,-4.41
2023-02-16T01:03:04.753Z,-4.40
2023-02-16T01:05:44.056Z,-4.57
2023-02-16T01:08:33.212Z,-4.47
2023-02-16T01:11:10.463Z,-4.57
2023-02-16T01:13:47.304Z,-4.49
2023-02-16T01:16:22.812Z,-4.66
2023-02-16T01:18:58.240Z,-4.80
2023-02-16T01:21:28.802Z,-4.92
2023-02-16T01:23:57.986Z,-4.73
2023-02-16T01:26:34.239Z,-4.70
2023-02-16T01:29:03.441Z,-4.67
2023-02-16T01:31:34.781Z,-4.73
2023-02-16T01:34:05.254Z,-4.81
2023-02-16T01:36:38.720Z,-4.72
2023-02-16T01:39:10.583Z,-4.79
2023-02-16T01:41:52.534Z,-4.72
2023-02-16T01:44:27.267Z,-4.74
2023-02-16T01:47:13.174Z,-4.77
2023-02-16T01:49:42.327Z,-4.74
2023-02-16T01:55:10.853Z,-4.81
2023-02-16T01:57:45.773Z,-4.78
2023-02-16T02:00:28.342Z,-4.79
2023-02-16T02:03:22.238Z,-4.75
2023-02-16T02:11:24.026Z,-4.82
2023-02-16T02:14:04.830Z,-4.87
2023-02-16T02:16:34.397Z,-4.94
2023-02-16T02:19:06.158Z,-4.85
2023-02-16T02:22:09.658Z,-4.74
2023-02-16T02:25:24.917Z,-4.81
2023-02-16T02:28:02.561Z,-4.96
2023-02-16T02:30:49.573Z,-4.74
2023-02-16T02:33:34.019Z,-4.69
2023-02-16T02:36:14.846Z,-4.97
2023-02-16T02:38:54.736Z,-4.73
2023-02-16T02:41:50.535Z,-5.02
2023-02-16T02:44:24.335Z,-4.79
2023-02-16T02:46:53.768Z,-4.85
2023-02-16T02:49:23.586Z,-4.95
2023-02-16T02:51:53.670Z,-4.82
2023-02-16T02:54:39.171Z,-4.76
2023-02-16T02:57:28.895Z,-4.82
2023-02-16T03:00:16.571Z,-5.11
2023-02-16T03:02:55.893Z,-5.38
2023-02-16T03:05:26.691Z,-5.00
2023-02-16T03:08:05.948Z,-4.91
2023-02-16T03:10:52.589Z,-5.09
2023-02-16T03:13:26.181Z,-4.92
2023-02-16T03:16:00.373Z,-4.97
2023-02-16T03:18:44.260Z,-4.78
2023-02-16T03:21:29.200Z,-4.91
2023-02-16T03:24:15.189Z,-4.92
2023-02-16T03:26:57.986Z,-4.96
2023-02-16T03:29:28.562Z,-4.98
2023-02-16T03:32:00.742Z,-4.95
2023-02-16T03:34:32.551Z,-4.91
2023-02-16T03:37:02.453Z,-4.82
2023-02-16T03:39:53.831Z,-4.81
2023-02-16T03:42:26.118Z,-5.00
2023-02-16T03:45:02.724Z,-4.93
2023-02-16T03:47:35.189Z,-5.02
2023-02-16T03:50:04.508Z,-5.05
2023-02-16T03:52:33.677Z,-4.81
2023-02-16T03:55:02.917Z,-4.96
2023-02-16T03:57:32.652Z,-5.24
2023-02-16T04:00:02.329Z,-4.90
2023-02-16T04:02:40.607Z,-4.98
2023-02-16T04:05:10.279Z,-5.03
2023-02-16T04:07:39.384Z,-5.05
2023-02-16T04:12:42.439Z,-5.01
2023-02-16T04:15:13.478Z,-4.95
2023-02-16T04:17:49.969Z,-5.14
2023-02-16T04:20:21.213Z,-4.97
2023-02-16T04:22:51.854Z,-4.93
2023-02-16T04:25:21.442Z,-5.28
2023-02-16T04:27:52.088Z,-5.08
2023-02-16T04:30:23.091Z,-5.20
2023-02-16T04:32:54.422Z,-5.18
2023-02-16T04:35:24.401Z,-5.16
2023-02-16T04:37:53.549Z,-5.10
2023-02-16T04:40:23.019Z,-5.01
2023-02-16T04:42:52.137Z,-5.17
2023-02-16T04:45:21.362Z,-5.12
2023-02-16T04:47:50.974Z,-5.11
2023-02-16T04:50:22.479Z,-5.07
2023-02-16T04:52:51.732Z,-5.24
2023-02-16T04:55:21.097Z,-5.42
2023-02-16T04:57:55.348Z,-5.39
2023-02-16T05:00:24.766Z,-5.41
2023-02-16T05:02:54.010Z,-5.42
2023-02-16T05:05:25.264Z,-5.34
2023-02-16T05:07:54.643Z,-5.40
2023-02-16T05:10:23.855Z,-5.63
2023-02-16T05:13:06.068Z,-5.43
2023-02-16T05:15:36.325Z,-5.36
2023-02-16T05:18:05.845Z,-5.42
2023-02-16T05:20:50.047Z,-5.35
2023-02-16T05:23:19.286Z,-5.37
2023-02-16T05:25:48.822Z,-5.36
2023-02-16T05:28:18.340Z,-5.36
2023-02-16T05:30:47.592Z,-5.44
2023-02-16T05:33:21.974Z,-5.34
2023-02-16T05:35:53.092Z,-5.39
2023-02-16T05:41:00.583Z,-5.28
2023-02-16T05:43:29.936Z,-5.39
2023-02-16T05:45:59.659Z,-5.44
2023-02-16T05:48:28.901Z,-5.41
2023-02-16T05:51:05.252Z,-5.32
2023-02-16T05:53:34.894Z,-5.39
2023-02-16T05:56:05.894Z,-5.29
2023-02-16T05:58:36.578Z,-5.28
2023-02-16T06:01:06.431Z,-5.20
2023-02-16T06:03:36.246Z,-5.13
2023-02-16T06:06:11.948Z,-5.12
2023-02-16T06:08:41.362Z,-5.03
2023-02-16T06:11:31.056Z,-5.12
2023-02-16T06:14:02.597Z,-5.02
2023-02-16T06:16:33.816Z,-5.04
2023-02-16T06:19:03.633Z,-5.24
2023-02-16T06:21:35.510Z,-4.94
2023-02-16T06:24:05.091Z,-5.07
2023-02-16T06:26:34.271Z,-5.03
2023-02-16T06:29:03.955Z,-5.09
2023-02-16T06:31:36.085Z,-5.10
2023-02-16T06:34:06.288Z,-4.99
2023-02-16T06:36:38.443Z,-4.95
2023-02-16T06:39:13.767Z,-4.94
2023-02-16T06:41:42.987Z,-5.02
2023-02-16T06:44:14.224Z,-4.81
2023-02-16T06:46:44.261Z,-5.09
2023-02-16T06:49:14.669Z,-5.01
2023-02-16T06:51:46.572Z,-5.05
2023-02-16T06:54:18.159Z,-4.86
2023-02-16T06:56:47.276Z,-4.86
2023-02-16T06:59:16.648Z,-4.69
2023-02-16T07:01:46.528Z,-4.59
2023-02-16T07:04:24.756Z,-4.66
2023-02-16T07:06:56.535Z,-4.56
2023-02-16T07:09:25.955Z,-4.70
2023-02-16T07:11:55.013Z,-4.54
2023-02-16T07:14:32.258Z,-4.47
2023-02-16T07:17:03.895Z,-4.45
2023-02-16T07:19:33.862Z,-4.58
2023-02-16T07:22:06.992Z,-4.43
2023-02-16T07:24:36.342Z,-4.25
2023-02-16T07:27:05.594Z,-4.04
2023-02-16T07:29:46.261Z,-4.05
2023-02-16T07:32:15.551Z,-3.99
2023-02-16T07:34:47.639Z,-3.99
2023-02-16T07:37:19.170Z,-3.92
2023-02-16T07:39:53.492Z,-3.95
2023-02-16T07:42:23.036Z,-3.76
2023-02-16T07:44:59.171Z,-3.73
2023-02-16T07:47:28.432Z,-3.91
2023-02-16T07:50:02.756Z,-4.08
2023-02-16T07:52:39.137Z,-4.00
2023-02-16T07:55:13.809Z,-3.87
2023-02-16T07:57:42.867Z,-3.93
2023-02-16T08:00:13.504Z,-3.91
2023-02-16T08:02:43.340Z,-4.28
2023-02-16T08:05:12.624Z,-3.68
2023-02-16T08:07:48.815Z,-3.68
2023-02-16T08:10:18.361Z,-4.10
2023-02-16T08:12:49.314Z,-3.71
2023-02-16T08:15:19.493Z,-3.76
2023-02-16T08:17:49.000Z,-3.86
2023-02-16T08:20:18.283Z,-3.95
2023-02-16T08:22:49.521Z,-3.88
2023-02-16T08:25:19.251Z,-3.89
2023-02-16T08:27:51.852Z,-3.77
2023-02-16T08:30:26.798Z,-3.80
2023-02-16T08:33:00.526Z,-3.54
2023-02-16T08:35:34.843Z,-3.31
2023-02-16T08:38:08.731Z,-3.07
2023-02-16T08:40:54.948Z,-3.19
2023-02-16T08:43:24.071Z,-3.35
2023-02-16T08:45:53.521Z,-3.75
2023-02-16T08:48:22.928Z,-3.47
2023-02-16T08:50:55.049Z,-3.64
2023-02-16T08:53:27.631Z,-3.51
2023-02-16T08:55:57.499Z,-3.63
2023-02-16T08:58:27.130Z,-3.43
2023-02-16T09:00:56.832Z,-3.58
2023-02-16T09:03:26.614Z,-4.05
2023-02-16T09:06:03.776Z,-3.66
2023-02-16T09:08:37.049Z,-3.62
2023-02-16T09:11:15.615Z,-3.46
2023-02-16T09:13:46.383Z,-3.38
2023-02-16T09:16:18.398Z,-3.62
2023-02-16T09:18:48.176Z,-3.81
2023-02-16T09:21:25.568Z,-4.00
2023-02-16T09:23:58.209Z,-4.14
2023-02-16T09:26:36.724Z,-3.94
2023-02-16T09:29:05.450Z,-3.90
2023-02-16T09:31:36.881Z,-3.88
2023-02-16T09:34:08.448Z,-3.82
2023-02-16T09:36:39.666Z,-3.74
2023-02-16T09:39:14.737Z,-3.80
2023-02-16T09:41:59.039Z,-3.70
2023-02-16T09:44:37.577Z,-3.93
2023-02-16T09:47:19.767Z,-3.61
2023-02-16T09:49:56.573Z,-3.56
2023-02-16T09:52:32.850Z,-3.60
2023-02-16T09:55:08.493Z,-3.69
2023-02-16T10:00:50.534Z,-3.78
2023-02-16T10:03:45.181Z,-3.75
2023-02-16T10:06:35.172Z,-3.60
2023-02-16T10:09:13.693Z,-3.53
2023-02-16T10:11:52.718Z,-3.44
2023-02-16T10:14:32.172Z,-3.37
2023-02-16T10:17:17.931Z,-3.41
2023-02-16T10:19:51.757Z,-3.19
2023-02-16T10:22:29.805Z,-3.26
2023-02-16T10:25:03.857Z,-3.31
2023-02-16T10:27:41.664Z,-3.28
2023-02-16T10:30:19.180Z,-3.54
2023-02-16T10:33:03.168Z,-3.62
2023-02-16T10:35:45.497Z,-3.45
2023-02-16T10:38:27.055Z,-3.22
2023-02-16T10:41:06.035Z,-3.33
2023-02-16T10:43:51.399Z,-3.34
2023-02-16T10:46:25.418Z,-3.59
2023-02-16T10:48:56.424Z,-3.68
2023-02-16T10:51:28.859Z,-3.29
2023-02-16T10:54:06.766Z,-3.38
2023-02-16T10:56:49.030Z,-3.10
2023-02-16T10:59:28.384Z,-3.01
2023-02-16T11:02:01.092Z,-2.99
2023-02-16T11:04:41.052Z,-2.89
2023-02-16T11:09:52.597Z,-3.55
2023-02-16T11:12:29.646Z,-3.54
2023-02-16T11:15:05.718Z,-3.49
2023-02-16T11:17:52.150Z,-3.49
2023-02-16T11:20:35.854Z,-3.39
2023-02-16T11:23:25.864Z,-3.76
2023-02-16T11:26:03.818Z,-3.98
2023-02-16T11:28:35.782Z,-3.43
2023-02-16T11:31:16.744Z,-3.47
2023-02-16T11:33:57.989Z,-3.36
2023-02-16T11:36:32.796Z,-3.44
2023-02-16T11:39:06.474Z,-3.29
2023-02-16T11:41:37.443Z,-3.27
2023-02-16T11:44:07.324Z,-3.23
2023-02-16T11:46:48.094Z,-3.08
2023-02-16T11:49:34.426Z,-3.44
2023-02-16T11:52:19.349Z,-3.40
2023-02-16T11:54:51.074Z,-3.40
2023-02-16T11:57:37.116Z,-3.35
2023-02-16T12:00:17.802Z,-3.39
2023-02-16T12:03:18.917Z,-3.35
2023-02-16T12:06:04.036Z,-3.37
2023-02-16T12:08:57.770Z,-3.43
2023-02-16T12:11:35.327Z,-3.56
2023-02-16T12:14:28.502Z,-3.62
2023-02-16T12:17:05.020Z,-3.70
2023-02-16T12:19:42.973Z,-3.75
2023-02-16T12:22:26.102Z,-3.71
2023-02-16T12:25:27.277Z,-3.75
2023-02-16T12:28:05.041Z,-3.77
2023-02-16T12:30:41.586Z,-3.80
2023-02-16T12:33:29.137Z,-3.82
2023-02-16T12:36:34.408Z,-3.65
2023-02-16T12:39:13.029Z,-3.72
2023-02-16T12:41:59.412Z,-3.63
2023-02-16T12:44:37.013Z,-3.58
2023-02-16T12:53:34.272Z,-3.74
2023-02-16T12:56:10.091Z,-3.88
2023-02-16T12:58:44.871Z,-3.80
2023-02-16T13:01:18.371Z,-4.01
2023-02-16T13:03:54.720Z,-3.65
2023-02-16T13:06:37.018Z,-3.74
2023-02-16T13:09:27.016Z,-3.87
2023-02-16T13:12:02.386Z,-3.75
2023-02-16T13:14:46.927Z,-3.99
2023-02-16T13:17:20.749Z,-4.03
2023-02-16T13:19:55.523Z,-4.33
2023-02-16T13:22:49.340Z,-4.56
2023-02-16T13:25:39.220Z,-4.91
2023-02-16T13:28:31.003Z,-4.58
2023-02-16T13:31:18.731Z,-4.45
2023-02-16T13:34:20.191Z,-4.45
2023-02-16T13:37:18.701Z,-4.31
2023-02-16T13:40:14.243Z,-4.26
2023-02-16T13:43:01.799Z,-4.40
2023-02-16T13:45:34.302Z,-4.55
2023-02-16T13:48:08.788Z,-4.53
2023-02-16T13:50:38.025Z,-4.76
2023-02-16T13:53:20.643Z,-4.75
2023-02-16T13:55:52.313Z,-4.75
2023-02-16T13:58:35.723Z,-4.66
2023-02-16T14:01:36.220Z,-4.68
2023-02-16T14:04:06.524Z,-4.89
2023-02-16T14:06:39.555Z,-4.81
2023-02-16T14:09:35.273Z,-4.95
2023-02-16T14:12:22.784Z,-4.94
2023-02-16T14:15:07.163Z,-4.89
2023-02-16T14:17:38.071Z,-5.10
2023-02-16T14:20:34.298Z,-5.16
2023-02-16T14:23:04.698Z,-5.28
2023-02-16T14:25:43.555Z,-5.32
2023-02-16T14:28:42.483Z,-5.34
2023-02-16T14:31:27.548Z,-5.52
2023-02-16T14:34:06.056Z,-5.55
2023-02-16T14:36:36.012Z,-5.64
2023-02-16T14:39:05.245Z,-6.30
2023-02-16T14:41:43.672Z,-5.66
2023-02-16T14:44:39.544Z,-5.54
2023-02-16T14:47:26.747Z,-5.56
2023-02-16T14:50:35.879Z,-5.61
2023-02-16T14:53:35.559Z,-5.74
2023-02-16T14:56:28.456Z,-5.87
2023-02-16T14:59:02.875Z,-5.85
2023-02-16T15:01:41.540Z,-5.91
2023-02-16T15:04:13.853Z,-6.09
2023-02-16T15:06:47.942Z,-6.29
2023-02-16T15:09:22.535Z,-6.37
2023-02-16T15:12:18.996Z,-6.43
2023-02-16T15:14:50.761Z,-6.80
2023-02-16T15:17:29.680Z,-6.68
2023-02-16T15:20:10.263Z,-6.75
2023-02-16T15:22:44.317Z,-6.74
2023-02-16T15:25:25.220Z,-6.72
2023-02-16T15:27:58.726Z,-6.91
2023-02-16T15:30:31.393Z,-6.85
2023-02-16T15:33:03.749Z,-7.05
2023-02-16T15:35:39.621Z,-6.80
2023-02-16T15:38:22.856Z,-6.78
2023-02-16T15:40:58.864Z,-7.04
2023-02-16T15:43:33.048Z,-6.85
2023-02-16T15:46:17.000Z,-6.86
2023-02-16T15:48:46.733Z,-7.00
2023-02-16T15:51:24.571Z,-7.14
2023-02-16T15:53:57.658Z,-6.77
2023-02-16T15:56:41.981Z,-6.85
2023-02-16T15:59:31.503Z,-6.57
2023-02-16T16:02:04.459Z,-6.54
2023-02-16T16:04:38.466Z,-6.61
2023-02-16T16:07:19.273Z,-6.53
2023-02-16T16:09:49.319Z,-6.59
2023-02-16T16:12:20.576Z,-6.56
2023-02-16T16:14:53.585Z,-6.49
2023-02-16T16:17:27.671Z,-6.52
2023-02-16T16:19:57.687Z,-6.60
2023-02-16T16:22:38.977Z,-6.63
2023-02-16T16:25:38.845Z,-6.57
2023-02-16T16:28:10.363Z,-6.86
2023-02-16T16:30:44.787Z,-6.72
2023-02-16T16:33:16.636Z,-6.56
2023-02-16T16:35:46.564Z,-6.54
2023-02-16T16:38:29.862Z,-6.72
2023-02-16T16:41:02.872Z,-6.79
2023-02-16T16:43:38.936Z,-6.91
2023-02-16T16:46:19.332Z,-6.94
2023-02-16T16:48:56.305Z,-7.23
2023-02-16T16:51:39.641Z,-7.55
2023-02-16T16:54:13.540Z,-7.59
2023-02-16T16:56:43.890Z,-7.77
2023-02-16T16:59:13.010Z,-7.84
2023-02-16T17:01:42.315Z,-7.83
2023-02-16T17:04:12.522Z,-7.93
2023-02-16T17:06:41.792Z,-7.99
2023-02-16T17:09:15.921Z,-8.10
2023-02-16T17:11:46.114Z,-8.21
2023-02-16T17:14:19.093Z,-8.26
2023-02-16T17:16:50.508Z,-8.22
2023-02-16T17:19:22.158Z,-8.83
2023-02-16T17:21:57.522Z,-8.61
2023-02-16T17:24:28.599Z,-8.62
2023-02-16T17:26:57.822Z,-8.65
2023-02-16T17:29:29.690Z,-8.68
2023-02-16T17:31:59.032Z,-8.71
2023-02-16T17:34:30.960Z,-8.92
2023-02-16T17:37:09.051Z,-8.82
2023-02-16T17:39:45.247Z,-9.05
2023-02-16T17:42:19.734Z,-8.93
2023-02-16T17:44:48.970Z,-8.86
2023-02-16T17:47:19.086Z,-8.97
2023-02-16T17:49:48.606Z,-8.96
2023-02-16T17:52:18.070Z,-8.91
2023-02-16T17:54:49.318Z,-8.86
2023-02-16T17:57:19.177Z,-8.73
2023-02-16T17:59:48.722Z,-8.90
2023-02-16T18:02:18.036Z,-8.55
2023-02-16T18:04:47.202Z,-8.55
2023-02-16T18:07:20.669Z,-8.48
2023-02-16T18:09:57.471Z,-8.57
2023-02-16T18:12:28.432Z,-8.46
2023-02-16T18:14:57.863Z,-8.54
2023-02-16T18:17:26.968Z,-8.39
2023-02-16T18:19:56.268Z,-8.32
2023-02-16T18:22:25.491Z,-8.26
2023-02-16T18:24:59.447Z,-8.26
2023-02-16T18:27:29.450Z,-8.03
2023-02-16T18:29:58.730Z,-7.88
2023-02-16T18:32:28.217Z,-8.15
2023-02-16T18:34:57.436Z,-7.99
2023-02-16T18:37:33.168Z,-7.91
2023-02-16T18:40:13.636Z,-7.86
2023-02-16T18:42:43.882Z,-7.80
2023-02-16T18:45:13.058Z,-7.95
2023-02-16T18:50:24.704Z,-7.81
2023-02-16T18:52:54.369Z,-7.92
2023-02-16T18:55:27.762Z,-7.96
2023-02-16T18:57:58.224Z,-8.27
2023-02-16T19:00:32.952Z,-8.52
2023-02-16T19:03:05.281Z,-8.39
2023-02-16T19:05:35.054Z,-8.65
2023-02-16T19:08:18.937Z,-8.73
2023-02-16T19:10:50.508Z,-8.94
2023-02-16T19:13:19.880Z,-9.01
2023-02-16T19:15:49.022Z,-8.83
2023-02-16T19:18:19.811Z,-8.87
2023-02-16T19:20:49.017Z,-9.10
2023-02-16T19:23:23.532Z,-9.09
2023-02-16T19:25:54.677Z,-9.05
2023-02-16T19:28:23.921Z,-9.18
2023-02-16T19:30:53.811Z,-9.57
2023-02-16T19:33:23.074Z,-9.07
2023-02-16T19:35:53.272Z,-9.01
2023-02-16T19:38:22.365Z,-8.98
2023-02-16T19:40:54.630Z,-8.96
2023-02-16T19:43:24.742Z,-8.88
2023-02-16T19:45:54.881Z,-8.87
2023-02-16T19:48:29.249Z,-8.99
2023-02-16T19:50:59.131Z,-9.01
2023-02-16T19:53:28.403Z,-9.10
2023-02-16T19:56:00.491Z,-9.02
2023-02-16T19:58:30.137Z,-8.98
2023-02-16T20:00:59.286Z,-8.87
2023-02-16T20:03:33.965Z,-8.74
2023-02-16T20:06:12.982Z,-8.55
2023-02-16T20:08:42.287Z,-8.39
2023-02-16T20:11:13.909Z,-8.28
2023-02-16T20:16:25.846Z,-8.14
2023-02-16T20:19:00.582Z,-8.06
2023-02-16T20:21:31.426Z,-7.98
2023-02-16T20:24:02.608Z,-7.97
2023-02-16T20:26:35.568Z,-7.99
2023-02-16T20:29:17.313Z,-7.92
2023-02-16T20:31:56.837Z,-7.90
2023-02-16T20:34:33.646Z,-8.10
2023-02-16T20:37:02.975Z,-7.84
2023-02-16T20:39:32.277Z,-7.94
2023-02-16T20:44:38.612Z,-7.87
2023-02-16T20:47:09.785Z,-7.83
2023-02-16T20:49:39.804Z,-7.80
2023-02-16T20:52:09.126Z,-7.70
2023-02-16T20:54:39.220Z,-7.60
2023-02-16T20:57:26.366Z,-7.57
2023-02-16T20:59:56.599Z,-7.50
2023-02-16T21:02:25.964Z,-7.45
2023-02-16T21:04:55.239Z,-7.64
2023-02-16T21:07:24.419Z,-7.45
2023-02-16T21:09:54.535Z,-7.40
2023-02-16T21:12:25.575Z,-7.41
2023-02-16T21:14:54.898Z,-7.45
2023-02-16T21:17:24.472Z,-7.53
2023-02-16T21:19:53.590Z,-7.58
2023-02-16T21:22:24.576Z,-7.66
2023-02-16T21:24:55.334Z,-7.66
2023-02-16T21:27:27.032Z,-7.82
2023-02-16T21:29:57.570Z,-7.91
2023-02-16T21:32:26.864Z,-8.10
2023-02-16T21:34:56.287Z,-8.36
2023-02-16T21:37:40.813Z,-8.29
2023-02-16T21:40:31.459Z,-8.31
2023-02-16T21:43:02.624Z,-7.99
2023-02-16T21:45:31.902Z,-7.91
2023-02-16T21:48:14.588Z,-8.11
2023-02-16T21:50:43.781Z,-7.70
2023-02-16T21:53:13.007Z,-7.55
2023-02-16T21:55:55.202Z,-7.47
2023-02-16T21:58:29.785Z,-7.33
2023-02-16T22:01:00.340Z,-7.17
2023-02-16T22:03:30.025Z,-7.27
2023-02-16T22:06:03.898Z,-7.19
2023-02-16T22:08:37.532Z,-7.14
2023-02-16T22:11:08.714Z,-7.09
2023-02-16T22:13:40.444Z,-6.98
2023-02-16T22:16:15.535Z,-6.99
2023-02-16T22:18:45.728Z,-6.95
2023-02-16T22:21:15.329Z,-6.93
2023-02-16T22:23:50.828Z,-6.91
2023-02-16T22:26:23.695Z,-6.86
2023-02-16T22:29:00.922Z,-6.87
2023-02-16T22:31:30.362Z,-6.78
2023-02-16T22:34:06.336Z,-6.75
2023-02-16T22:36:37.406Z,-6.70
2023-02-16T22:39:06.816Z,-6.82
2023-02-16T22:41:36.684Z,-6.52
2023-02-16T22:44:08.203Z,-6.43
2023-02-16T22:46:37.462Z,-6.52
2023-02-16T22:49:06.534Z,-6.56
2023-02-16T22:51:37.114Z,-6.57
2023-02-16T22:54:07.426Z,-6.57
2023-02-16T22:56:37.358Z,-6.63
2023-02-16T22:59:09.478Z,-6.59
2023-02-16T23:01:39.886Z,-6.76
2023-02-16T23:04:09.148Z,-6.61
2023-02-16T23:06:39.355Z,-6.87
2023-02-16T23:09:15.886Z,-6.53
2023-02-16T23:11:46.506Z,-6.57
2023-02-16T23:14:17.999Z,-6.68
2023-02-16T23:16:48.835Z,-6.71
2023-02-16T23:19:25.491Z,-6.67
2023-02-16T23:21:55.104Z,-6.70
2023-02-16T23:24:25.428Z,-6.78
2023-02-16T23:27:01.007Z,-6.75
2023-02-16T23:29:32.188Z,-6.80
2023-02-16T23:32:08.286Z,-6.79
2023-02-16T23:34:37.414Z,-6.79
2023-02-16T23:37:06.731Z,-6.79
2023-02-16T23:39:35.824Z,-6.68
2023-02-16T23:42:09.994Z,-6.70
2023-02-16T23:44:46.882Z,-6.74
2023-02-16T23:47:16.011Z,-6.69
2023-02-16T23:49:45.084Z,-6.68
2023-02-16T23:52:19.458Z,-6.68
2023-02-16T23:54:49.611Z,-6.75
2023-02-16T23:57:28.979Z,-6.77
